createdAt,value
2023-01-10T00:00:01.859Z,1007.2
2023-01-10T00:01:01.711Z,1007.2
2023-01-10T00:02:01.779Z,1007.3
2023-01-10T00:03:02.089Z,1007.3
2023-01-10T00:04:01.840Z,1007.2
2023-01-10T00:05:01.958Z,1007.2
2023-01-10T00:06:01.739Z,1007.2
2023-01-10T00:07:02.779Z,1007.2
2023-01-10T00:08:02.596Z,1007.1
2023-01-10T00:09:02.654Z,1007.2
2023-01-10T00:10:02.563Z,1007.2
2023-01-10T00:11:02.576Z,1007.2
2023-01-10T00:12:02.391Z,1007.2
2023-01-10T00:13:02.394Z,1007.2
2023-01-10T00:14:02.380Z,1007.3
2023-01-10T00:15:02.296Z,1007.3
2023-01-10T00:16:02.219Z,1007.3
2023-01-10T00:17:02.429Z,1007.3
2023-01-10T00:18:02.355Z,1007.3
2023-01-10T00:19:02.237Z,1007.3
2023-01-10T00:20:02.063Z,1007.3
2023-01-10T00:21:02.075Z,1007.3
2023-01-10T00:22:01.952Z,1007.3
2023-01-10T00:23:01.937Z,1007.4
2023-01-10T00:24:01.743Z,1007.3
2023-01-10T00:25:01.825Z,1007.4
2023-01-10T00:26:02.753Z,1007.4
2023-01-10T00:27:02.587Z,1007.4
2023-01-10T00:28:02.490Z,1007.4
2023-01-10T00:29:02.474Z,1007.5
2023-01-10T00:30:02.364Z,1007.4
2023-01-10T00:31:02.600Z,1007.5
2023-01-10T00:32:02.633Z,1007.5
2023-01-10T00:33:02.476Z,1007.5
2023-01-10T00:34:02.547Z,1007.5
2023-01-10T00:35:02.497Z,1007.5
2023-01-10T00:36:02.303Z,1007.5
2023-01-10T00:37:02.344Z,1007.5
2023-01-10T00:38:02.361Z,1007.5
2023-01-10T00:39:02.180Z,1007.4
2023-01-10T00:40:02.222Z,1007.5
2023-01-10T00:41:02.002Z,1007.6
2023-01-10T00:42:02.264Z,1007.6
2023-01-10T00:43:02.004Z,1007.6
2023-01-10T00:44:01.992Z,1007.6
2023-01-10T00:45:01.747Z,1007.6
2023-01-10T00:46:02.055Z,1007.6
2023-01-10T00:47:02.788Z,1007.6
2023-01-10T00:48:02.697Z,1007.6
2023-01-10T00:49:02.557Z,1007.6
2023-01-10T00:50:02.492Z,1007.7
2023-01-10T00:51:02.561Z,1007.7
2023-01-10T00:52:02.449Z,1007.7
2023-01-10T00:53:02.238Z,1007.7
2023-01-10T00:54:02.353Z,1007.8
2023-01-10T00:55:02.330Z,1007.8
2023-01-10T00:56:02.098Z,1007.8
2023-01-10T00:57:02.113Z,1007.8
2023-01-10T00:58:01.915Z,1007.8
2023-01-10T00:59:01.938Z,1007.8
2023-01-10T01:00:01.870Z,1007.8
2023-01-10T01:01:01.887Z,1007.9
2023-01-10T01:02:02.949Z,1007.8
2023-01-10T01:03:01.867Z,1007.8
2023-01-10T01:04:02.732Z,1007.9
2023-01-10T01:05:02.678Z,1007.9
2023-01-10T01:06:02.653Z,1007.9
2023-01-10T01:07:02.530Z,1007.9
2023-01-10T01:08:02.447Z,1007.9
2023-01-10T01:09:02.445Z,1007.9
2023-01-10T01:10:02.321Z,1008
2023-01-10T01:11:02.317Z,1008
2023-01-10T01:12:02.246Z,1008
2023-01-10T01:13:02.233Z,1008
2023-01-10T01:14:02.280Z,1007.9
2023-01-10T01:15:02.241Z,1008
2023-01-10T01:16:02.433Z,1008
2023-01-10T01:17:02.253Z,1008
2023-01-10T01:18:02.282Z,1007.9
2023-01-10T01:19:02.147Z,1008
2023-01-10T01:20:02.111Z,1008
2023-01-10T01:21:01.957Z,1008
2023-01-10T01:22:02.004Z,1008.1
2023-01-10T01:23:01.799Z,1008
2023-01-10T01:24:01.836Z,1008
2023-01-10T01:25:02.746Z,1008
2023-01-10T01:26:02.654Z,1008
2023-01-10T01:27:02.716Z,1008.1
2023-01-10T01:28:02.522Z,1008.1
2023-01-10T01:29:02.555Z,1008.1
2023-01-10T01:30:02.521Z,1008.1
2023-01-10T01:31:02.792Z,1008.1
2023-01-10T01:32:02.783Z,1008.1
2023-01-10T01:33:02.768Z,1008.1
2023-01-10T01:34:02.618Z,1008.1
2023-01-10T01:35:02.672Z,1008.1
2023-01-10T01:36:02.481Z,1008.2
2023-01-10T01:37:02.519Z,1008.2
2023-01-10T01:38:02.492Z,1008.2
2023-01-10T01:39:02.343Z,1008.2
2023-01-10T01:40:02.304Z,1008.2
2023-01-10T01:41:02.240Z,1008.2
2023-01-10T01:42:02.093Z,1008.2
2023-01-10T01:43:02.085Z,1008.2
2023-01-10T01:44:01.998Z,1008.2
2023-01-10T01:45:01.881Z,1008.2
2023-01-10T01:46:01.910Z,1008.3
2023-01-10T01:47:01.766Z,1008.3
2023-01-10T01:48:01.771Z,1008.2
2023-01-10T01:49:02.671Z,1008.2
2023-01-10T01:50:02.642Z,1008.3
2023-01-10T01:51:02.629Z,1008.2
2023-01-10T01:52:02.458Z,1008.2
2023-01-10T01:53:02.496Z,1008.2
2023-01-10T01:54:02.486Z,1008.2
2023-01-10T01:55:02.378Z,1008.2
2023-01-10T01:56:02.358Z,1008.2
2023-01-10T01:57:02.289Z,1008.2
2023-01-10T01:58:02.159Z,1008.3
2023-01-10T01:59:02.403Z,1008.2
2023-01-10T02:00:02.255Z,1008.2
2023-01-10T02:01:02.224Z,1008.2
2023-01-10T02:02:02.316Z,1008.2
2023-01-10T02:03:04.022Z,1008.2
2023-01-10T02:04:01.969Z,1008.3
2023-01-10T02:05:01.780Z,1008.2
2023-01-10T02:06:02.780Z,1008.3
2023-01-10T02:07:02.660Z,1008.2
2023-01-10T02:08:02.729Z,1008.3
2023-01-10T02:09:02.488Z,1008.2
2023-01-10T02:10:02.565Z,1008.3
2023-01-10T02:11:02.500Z,1008.3
2023-01-10T02:12:02.334Z,1008.3
2023-01-10T02:13:02.291Z,1008.3
2023-01-10T02:14:02.252Z,1008.3
2023-01-10T02:15:02.121Z,1008.3
2023-01-10T02:16:02.298Z,1008.3
2023-01-10T02:17:01.888Z,1008.4
2023-01-10T02:18:01.854Z,1008.4
2023-01-10T02:19:01.745Z,1008.4
2023-01-10T02:20:02.710Z,1008.4
2023-01-10T02:21:02.581Z,1008.4
2023-01-10T02:22:02.683Z,1008.3
2023-01-10T02:23:02.535Z,1008.4
2023-01-10T02:24:02.554Z,1008.4
2023-01-10T02:25:02.455Z,1008.4
2023-01-10T02:26:02.322Z,1008.4
2023-01-10T02:27:02.313Z,1008.4
2023-01-10T02:28:02.126Z,1008.5
2023-01-10T02:29:02.169Z,1008.5
2023-01-10T02:30:02.054Z,1008.5
2023-01-10T02:31:02.253Z,1008.5
2023-01-10T02:32:01.757Z,1008.5
2023-01-10T02:33:06.099Z,1008.6
2023-01-10T02:34:01.802Z,1008.6
2023-01-10T02:35:01.908Z,1008.6
2023-01-10T02:36:02.751Z,1008.5
2023-01-10T02:37:02.543Z,1008.6
2023-01-10T02:38:02.585Z,1008.6
2023-01-10T02:39:02.434Z,1008.6
2023-01-10T02:40:02.469Z,1008.6
2023-01-10T02:41:02.423Z,1008.6
2023-01-10T02:42:02.311Z,1008.6
2023-01-10T02:43:02.295Z,1008.6
2023-01-10T02:44:02.089Z,1008.7
2023-01-10T02:45:02.321Z,1008.6
2023-01-10T02:46:02.045Z,1008.6
2023-01-10T02:47:02.096Z,1008.6
2023-01-10T02:48:02.091Z,1008.7
2023-01-10T02:49:01.870Z,1008.7
2023-01-10T02:50:01.952Z,1008.7
2023-01-10T02:51:01.754Z,1008.7
2023-01-10T02:52:01.762Z,1008.8
2023-01-10T02:53:02.706Z,1008.8
2023-01-10T02:54:02.617Z,1008.8
2023-01-10T02:55:02.625Z,1008.8
2023-01-10T02:56:02.421Z,1008.8
2023-01-10T02:57:02.533Z,1008.7
2023-01-10T02:58:02.437Z,1008.8
2023-01-10T02:59:02.333Z,1008.8
2023-01-10T03:00:02.279Z,1008.9
2023-01-10T03:01:02.354Z,1008.8
2023-01-10T03:02:02.115Z,1008.8
2023-01-10T03:03:02.079Z,1008.9
2023-01-10T03:04:01.789Z,1008.9
2023-01-10T03:05:02.006Z,1008.9
2023-01-10T03:06:01.734Z,1008.9
2023-01-10T03:07:02.739Z,1008.9
2023-01-10T03:08:02.562Z,1008.9
2023-01-10T03:09:02.620Z,1009
2023-01-10T03:10:02.498Z,1009
2023-01-10T03:11:02.438Z,1009
2023-01-10T03:12:02.396Z,1009
2023-01-10T03:13:02.173Z,1009.1
2023-01-10T03:14:02.169Z,1009.1
2023-01-10T03:15:02.037Z,1009.1
2023-01-10T03:16:02.118Z,1009.1
2023-01-10T03:17:05.142Z,1009.1
2023-01-10T03:18:01.842Z,1009.1
2023-01-10T03:19:01.905Z,1009.1
2023-01-10T03:20:02.754Z,1009.1
2023-01-10T03:21:02.669Z,1009.2
2023-01-10T03:22:02.709Z,1009.2
2023-01-10T03:23:02.518Z,1009.2
2023-01-10T03:24:02.566Z,1009.2
2023-01-10T03:25:02.402Z,1009.2
2023-01-10T03:26:02.433Z,1009.2
2023-01-10T03:27:03.523Z,1009.3
2023-01-10T03:28:02.233Z,1009.3
2023-01-10T03:29:02.295Z,1009.2
2023-01-10T03:30:02.245Z,1009.3
2023-01-10T03:31:02.286Z,1009.2
2023-01-10T03:32:01.838Z,1009.3
2023-01-10T03:33:01.843Z,1009.3
2023-01-10T03:34:01.741Z,1009.3
2023-01-10T03:35:02.803Z,1009.4
2023-01-10T03:36:02.610Z,1009.4
2023-01-10T03:37:02.633Z,1009.4
2023-01-10T03:38:02.549Z,1009.4
2023-01-10T03:39:02.514Z,1009.4
2023-01-10T03:40:02.424Z,1009.4
2023-01-10T03:41:02.299Z,1009.4
2023-01-10T03:42:02.269Z,1009.4
2023-01-10T03:43:02.254Z,1009.4
2023-01-10T03:44:02.197Z,1009.5
2023-01-10T03:45:02.139Z,1009.5
2023-01-10T03:46:01.958Z,1009.5
2023-01-10T03:47:01.793Z,1009.5
2023-01-10T03:48:01.725Z,1009.5
2023-01-10T03:49:02.670Z,1009.5
2023-01-10T03:50:02.662Z,1009.6
2023-01-10T03:51:02.593Z,1009.7
2023-01-10T03:52:02.500Z,1009.7
2023-01-10T03:53:02.461Z,1009.7
2023-01-10T03:54:02.410Z,1009.7
2023-01-10T03:55:02.647Z,1009.7
2023-01-10T03:56:02.390Z,1009.8
2023-01-10T03:57:03.227Z,1009.8
2023-01-10T03:58:01.957Z,1009.8
2023-01-10T03:59:01.887Z,1009.8
2023-01-10T04:00:01.729Z,1009.8
2023-01-10T04:01:02.192Z,1009.8
2023-01-10T04:02:03.209Z,1009.8
2023-01-10T04:03:01.992Z,1009.8
2023-01-10T04:04:02.107Z,1009.9
2023-01-10T04:05:01.844Z,1009.9
2023-01-10T04:06:01.791Z,1009.8
2023-01-10T04:07:01.746Z,1009.8
2023-01-10T04:08:02.736Z,1009.9
2023-01-10T04:09:02.582Z,1009.9
2023-01-10T04:10:02.617Z,1009.9
2023-01-10T04:11:02.500Z,1009.9
2023-01-10T04:12:02.489Z,1010
2023-01-10T04:13:02.388Z,1010.1
2023-01-10T04:14:02.292Z,1010
2023-01-10T04:15:02.282Z,1010.1
2023-01-10T04:16:02.283Z,1010
2023-01-10T04:17:02.247Z,1010.1
2023-01-10T04:18:02.256Z,1010
2023-01-10T04:19:02.137Z,1010
2023-01-10T04:20:02.078Z,1010
2023-01-10T04:21:01.895Z,1010.1
2023-01-10T04:22:01.872Z,1010.1
2023-01-10T04:23:01.750Z,1010.1
2023-01-10T04:24:01.734Z,1010.2
2023-01-10T04:25:02.662Z,1010.1
2023-01-10T04:26:02.635Z,1010.1
2023-01-10T04:27:02.597Z,1010.1
2023-01-10T04:28:02.487Z,1010.2
2023-01-10T04:29:02.513Z,1010.2
2023-01-10T04:30:02.446Z,1010.2
2023-01-10T04:31:02.446Z,1010.3
2023-01-10T04:32:02.285Z,1010.2
2023-01-10T04:33:02.209Z,1010.2
2023-01-10T04:34:02.199Z,1010.2
2023-01-10T04:35:02.138Z,1010.2
2023-01-10T04:36:02.065Z,1010.2
2023-01-10T04:37:01.922Z,1010.2
2023-01-10T04:38:01.867Z,1010.2
2023-01-10T04:39:01.824Z,1010.2
2023-01-10T04:40:01.762Z,1010.2
2023-01-10T04:41:02.676Z,1010.2
2023-01-10T04:42:02.595Z,1010.2
2023-01-10T04:43:02.591Z,1010.2
2023-01-10T04:44:02.476Z,1010.3
2023-01-10T04:45:02.408Z,1010.3
2023-01-10T04:46:02.714Z,1010.3
2023-01-10T04:47:02.409Z,1010.3
2023-01-10T04:48:02.340Z,1010.4
2023-01-10T04:49:02.263Z,1010.3
2023-01-10T04:50:02.159Z,1010.3
2023-01-10T04:51:02.137Z,1010.4
2023-01-10T04:52:02.011Z,1010.4
2023-01-10T04:53:01.943Z,1010.4
2023-01-10T04:54:01.853Z,1010.4
2023-01-10T04:55:01.818Z,1010.5
2023-01-10T04:56:01.719Z,1010.5
2023-01-10T04:57:02.738Z,1010.5
2023-01-10T04:58:02.658Z,1010.5
2023-01-10T04:59:02.639Z,1010.5
2023-01-10T05:00:02.530Z,1010.5
2023-01-10T05:01:02.642Z,1010.6
2023-01-10T05:02:02.415Z,1010.6
2023-01-10T05:03:02.585Z,1010.5
2023-01-10T05:04:02.397Z,1010.6
2023-01-10T05:05:02.291Z,1010.6
2023-01-10T05:06:02.234Z,1010.6
2023-01-10T05:07:02.178Z,1010.6
2023-01-10T05:08:02.072Z,1010.6
2023-01-10T05:09:01.956Z,1010.6
2023-01-10T05:10:01.833Z,1010.7
2023-01-10T05:11:01.827Z,1010.7
2023-01-10T05:12:01.740Z,1010.8
2023-01-10T05:13:02.663Z,1010.7
2023-01-10T05:14:02.705Z,1010.8
2023-01-10T05:15:02.738Z,1010.8
2023-01-10T05:16:02.556Z,1010.8
2023-01-10T05:17:02.418Z,1010.9
2023-01-10T05:18:02.441Z,1010.9
2023-01-10T05:19:02.415Z,1010.9
2023-01-10T05:20:02.318Z,1010.9
2023-01-10T05:21:02.216Z,1010.9
2023-01-10T05:22:02.111Z,1010.9
2023-01-10T05:23:02.100Z,1010.9
2023-01-10T05:24:02.030Z,1011
2023-01-10T05:25:01.854Z,1010.9
2023-01-10T05:26:01.768Z,1011
2023-01-10T05:27:01.742Z,1011
2023-01-10T05:28:02.680Z,1011
2023-01-10T05:29:02.561Z,1010.9
2023-01-10T05:30:02.539Z,1011
2023-01-10T05:31:02.514Z,1010.9
2023-01-10T05:32:02.455Z,1011
2023-01-10T05:33:02.207Z,1011
2023-01-10T05:34:02.103Z,1011
2023-01-10T05:35:02.106Z,1011.1
2023-01-10T05:36:01.925Z,1011.1
2023-01-10T05:37:01.901Z,1011.2
2023-01-10T05:38:01.791Z,1011.2
2023-01-10T05:39:01.791Z,1011.3
2023-01-10T05:40:01.785Z,1011.3
2023-01-10T05:41:01.736Z,1011.3
2023-01-10T05:42:02.700Z,1011.3
2023-01-10T05:43:02.615Z,1011.3
2023-01-10T05:44:02.621Z,1011.3
2023-01-10T05:45:02.476Z,1011.3
2023-01-10T05:46:02.634Z,1011.4
2023-01-10T05:47:02.554Z,1011.3
2023-01-10T05:48:02.405Z,1011.4
2023-01-10T05:49:02.316Z,1011.5
2023-01-10T05:50:02.271Z,1011.4
2023-01-10T05:51:02.214Z,1011.4
2023-01-10T05:52:02.163Z,1011.5
2023-01-10T05:53:02.010Z,1011.5
2023-01-10T05:54:02.077Z,1011.5
2023-01-10T05:55:01.915Z,1011.5
2023-01-10T05:56:01.970Z,1011.6
2023-01-10T05:57:01.734Z,1011.6
2023-01-10T05:58:01.789Z,1011.6
2023-01-10T05:59:28.386Z,1011.6
2023-01-10T06:00:05.542Z,1011.5
2023-01-10T06:01:02.634Z,1011.6
2023-01-10T06:02:02.421Z,1011.6
2023-01-10T06:03:02.450Z,1011.5
2023-01-10T06:04:02.185Z,1011.6
2023-01-10T06:05:02.214Z,1011.6
2023-01-10T06:06:02.006Z,1011.6
2023-01-10T06:07:02.014Z,1011.6
2023-01-10T06:08:01.796Z,1011.6
2023-01-10T06:09:01.799Z,1011.6
2023-01-10T06:10:02.819Z,1011.7
2023-01-10T06:11:02.618Z,1011.7
2023-01-10T06:12:02.692Z,1011.7
2023-01-10T06:13:02.477Z,1011.8
2023-01-10T06:14:02.514Z,1011.8
2023-01-10T06:15:02.523Z,1011.8
2023-01-10T06:16:02.512Z,1011.8
2023-01-10T06:17:02.633Z,1011.8
2023-01-10T06:18:02.732Z,1011.7
2023-01-10T06:19:02.539Z,1011.8
2023-01-10T06:20:02.589Z,1011.8
2023-01-10T06:21:02.431Z,1011.8
2023-01-10T06:22:02.479Z,1011.8
2023-01-10T06:23:02.398Z,1011.8
2023-01-10T06:24:02.133Z,1011.9
2023-01-10T06:25:03.083Z,1011.9
2023-01-10T06:26:01.805Z,1011.9
2023-01-10T06:27:01.808Z,1011.9
2023-01-10T06:28:02.690Z,1012
2023-01-10T06:29:02.578Z,1012
2023-01-10T06:30:02.749Z,1011.9
2023-01-10T06:31:02.618Z,1011.9
2023-01-10T06:32:02.527Z,1012
2023-01-10T06:33:02.684Z,1012
2023-01-10T06:34:02.410Z,1012
2023-01-10T06:35:02.486Z,1012
2023-01-10T06:36:02.513Z,1012
2023-01-10T06:37:02.210Z,1012.1
2023-01-10T06:38:02.217Z,1012.1
2023-01-10T06:39:02.126Z,1012.1
2023-01-10T06:40:02.171Z,1012.1
2023-01-10T06:41:01.962Z,1012.1
2023-01-10T06:42:01.969Z,1012.1
2023-01-10T06:43:01.833Z,1012.1
2023-01-10T06:44:01.846Z,1012.1
2023-01-10T06:45:02.756Z,1012.1
2023-01-10T06:46:02.665Z,1012.2
2023-01-10T06:47:01.740Z,1012.2
2023-01-10T06:48:03.151Z,1012.3
2023-01-10T06:49:01.984Z,1012.2
2023-01-10T06:50:02.077Z,1012.3
2023-01-10T06:51:01.788Z,1012.3
2023-01-10T06:52:01.792Z,1012.3
2023-01-10T06:53:02.788Z,1012.3
2023-01-10T06:54:02.598Z,1012.3
2023-01-10T06:55:02.679Z,1012.4
2023-01-10T06:56:02.483Z,1012.4
2023-01-10T06:57:02.548Z,1012.4
2023-01-10T06:58:02.392Z,1012.4
2023-01-10T06:59:02.413Z,1012.4
2023-01-10T07:00:02.506Z,1012.5
2023-01-10T07:01:02.738Z,1012.5
2023-01-10T07:02:03.001Z,1012.5
2023-01-10T07:03:01.905Z,1012.5
2023-01-10T07:04:03.186Z,1012.5
2023-01-10T07:05:01.896Z,1012.6
2023-01-10T07:06:01.823Z,1012.5
2023-01-10T07:07:01.769Z,1012.6
2023-01-10T07:08:02.756Z,1012.5
2023-01-10T07:09:02.563Z,1012.5
2023-01-10T07:10:02.762Z,1012.6
2023-01-10T07:11:02.614Z,1012.5
2023-01-10T07:12:02.605Z,1012.6
2023-01-10T07:13:02.487Z,1012.6
2023-01-10T07:14:02.546Z,1012.6
2023-01-10T07:15:02.502Z,1012.7
2023-01-10T07:16:02.454Z,1012.7
2023-01-10T07:17:01.752Z,1012.7
2023-01-10T07:18:01.822Z,1012.7
2023-01-10T07:19:02.745Z,1012.7
2023-01-10T07:20:02.643Z,1012.6
2023-01-10T07:21:02.632Z,1012.7
2023-01-10T07:22:02.483Z,1012.7
2023-01-10T07:23:02.241Z,1012.7
2023-01-10T07:24:03.400Z,1012.7
2023-01-10T07:25:02.071Z,1012.7
2023-01-10T07:26:02.067Z,1012.7
2023-01-10T07:27:01.905Z,1012.7
2023-01-10T07:28:01.893Z,1012.8
2023-01-10T07:29:01.754Z,1012.7
2023-01-10T07:30:02.805Z,1012.7
2023-01-10T07:31:02.917Z,1012.7
2023-01-10T07:32:01.805Z,1012.8
2023-01-10T07:33:01.818Z,1012.7
2023-01-10T07:34:02.817Z,1012.7
2023-01-10T07:35:02.638Z,1012.8
2023-01-10T07:36:02.644Z,1012.8
2023-01-10T07:37:02.489Z,1012.8
2023-01-10T07:38:02.562Z,1012.8
2023-01-10T07:39:02.370Z,1012.9
2023-01-10T07:40:02.410Z,1012.9
2023-01-10T07:41:02.322Z,1012.9
2023-01-10T07:42:02.177Z,1012.9
2023-01-10T07:43:02.225Z,1012.9
2023-01-10T07:44:01.986Z,1012.9
2023-01-10T07:45:02.070Z,1012.9
2023-01-10T07:46:02.036Z,1012.9
2023-01-10T07:47:02.010Z,1012.9
2023-01-10T07:48:02.063Z,1012.9
2023-01-10T07:49:01.810Z,1012.9
2023-01-10T07:50:01.934Z,1012.9
2023-01-10T07:51:01.708Z,1012.9
2023-01-10T07:52:02.769Z,1012.9
2023-01-10T07:53:02.556Z,1012.9
2023-01-10T07:54:02.626Z,1012.9
2023-01-10T07:55:02.516Z,1012.9
2023-01-10T07:56:02.733Z,1013
2023-01-10T07:57:02.533Z,1013
2023-01-10T07:58:02.603Z,1012.9
2023-01-10T07:59:02.456Z,1013
2023-01-10T08:00:02.518Z,1013
2023-01-10T08:01:02.785Z,1013
2023-01-10T08:02:02.225Z,1013
2023-01-10T08:03:02.926Z,1013
2023-01-10T08:04:01.806Z,1013
2023-01-10T08:05:02.746Z,1013
2023-01-10T08:06:02.739Z,1013
2023-01-10T08:07:02.562Z,1013.1
2023-01-10T08:08:02.478Z,1013
2023-01-10T08:09:02.443Z,1013
2023-01-10T08:10:02.405Z,1013.1
2023-01-10T08:11:02.261Z,1013.1
2023-01-10T08:12:02.331Z,1013.2
2023-01-10T08:13:19.584Z,1013.2
2023-01-10T08:14:02.342Z,1013.2
2023-01-10T08:15:02.402Z,1013.3
2023-01-10T08:16:02.472Z,1013.3
2023-01-10T08:17:02.178Z,1013.3
2023-01-10T08:18:05.325Z,1013.3
2023-01-10T08:19:02.035Z,1013.3
2023-01-10T08:20:02.053Z,1013.3
2023-01-10T08:21:01.869Z,1013.3
2023-01-10T08:22:01.802Z,1013.3
2023-01-10T08:23:01.710Z,1013.3
2023-01-10T08:24:02.751Z,1013.3
2023-01-10T08:25:02.576Z,1013.3
2023-01-10T08:26:02.644Z,1013.2
2023-01-10T08:27:02.488Z,1013.3
2023-01-10T08:28:02.478Z,1013.2
2023-01-10T08:29:02.411Z,1013.3
2023-01-10T08:30:02.245Z,1013.3
2023-01-10T08:31:02.517Z,1013.3
2023-01-10T08:32:02.302Z,1013.4
2023-01-10T08:33:02.156Z,1013.3
2023-01-10T08:34:02.206Z,1013.4
2023-01-10T08:35:02.041Z,1013.4
2023-01-10T08:36:01.969Z,1013.4
2023-01-10T08:37:01.798Z,1013.5
2023-01-10T08:38:01.804Z,1013.5
2023-01-10T08:39:01.732Z,1013.4
2023-01-10T08:40:02.720Z,1013.5
2023-01-10T08:41:02.588Z,1013.5
2023-01-10T08:42:02.638Z,1013.5
2023-01-10T08:43:02.545Z,1013.5
2023-01-10T08:44:02.481Z,1013.5
2023-01-10T08:45:02.400Z,1013.5
2023-01-10T08:46:02.554Z,1013.5
2023-01-10T08:47:02.493Z,1013.5
2023-01-10T08:48:02.736Z,1013.4
2023-01-10T08:49:02.574Z,1013.6
2023-01-10T08:50:02.441Z,1013.5
2023-01-10T08:51:02.514Z,1013.6
2023-01-10T08:52:02.457Z,1013.6
2023-01-10T08:53:02.231Z,1013.6
2023-01-10T08:54:02.248Z,1013.6
2023-01-10T08:55:02.134Z,1013.6
2023-01-10T08:56:05.861Z,1013.7
2023-01-10T08:57:02.694Z,1013.7
2023-01-10T08:58:02.576Z,1013.8
2023-01-10T08:59:02.601Z,1013.8
2023-01-10T09:00:02.465Z,1013.8
2023-01-10T09:01:03.010Z,1013.7
2023-01-10T09:02:02.418Z,1013.8
2023-01-10T09:03:02.571Z,1013.8
2023-01-10T09:04:02.417Z,1013.8
2023-01-10T09:05:02.324Z,1013.9
2023-01-10T09:06:02.354Z,1013.9
2023-01-10T09:07:02.219Z,1013.9
2023-01-10T09:08:02.161Z,1013.9
2023-01-10T09:09:02.098Z,1013.9
2023-01-10T09:10:01.898Z,1014
2023-01-10T09:11:01.925Z,1014
2023-01-10T09:12:01.777Z,1014
2023-01-10T09:13:02.775Z,1014
2023-01-10T09:14:02.568Z,1014
2023-01-10T09:15:02.644Z,1013.9
2023-01-10T09:16:02.670Z,1014
2023-01-10T09:17:02.586Z,1014
2023-01-10T09:18:02.668Z,1014.1
2023-01-10T09:19:02.481Z,1014.1
2023-01-10T09:20:02.543Z,1014.2
2023-01-10T09:21:02.429Z,1014.2
2023-01-10T09:22:02.316Z,1014.2
2023-01-10T09:23:02.308Z,1014.3
2023-01-10T09:24:02.280Z,1014.2
2023-01-10T09:25:02.093Z,1014.3
2023-01-10T09:26:02.118Z,1014.2
2023-01-10T09:27:01.947Z,1014.2
2023-01-10T09:28:02.017Z,1014.3
2023-01-10T09:29:01.764Z,1014.3
2023-01-10T09:30:01.862Z,1014.3
2023-01-10T09:31:02.981Z,1014.3
2023-01-10T09:32:01.767Z,1014.2
2023-01-10T09:33:01.744Z,1014.3
2023-01-10T09:34:02.767Z,1014.3
2023-01-10T09:35:02.632Z,1014.3
2023-01-10T09:36:02.667Z,1014.3
2023-01-10T09:37:02.458Z,1014.4
2023-01-10T09:38:02.439Z,1014.4
2023-01-10T09:39:02.407Z,1014.4
2023-01-10T09:40:02.345Z,1014.4
2023-01-10T09:41:02.211Z,1014.4
2023-01-10T09:42:02.021Z,1014.4
2023-01-10T09:43:02.059Z,1014.4
2023-01-10T09:44:02.012Z,1014.5
2023-01-10T09:45:01.915Z,1014.5
2023-01-10T09:46:01.750Z,1014.4
2023-01-10T09:47:23.239Z,1014.4
2023-01-10T09:48:02.122Z,1014.4
2023-01-10T09:49:02.070Z,1014.5
2023-01-10T09:50:01.895Z,1014.5
2023-01-10T09:51:01.863Z,1014.5
2023-01-10T09:52:01.851Z,1014.5
2023-01-10T09:53:02.762Z,1014.4
2023-01-10T09:54:13.297Z,1014.5
2023-01-10T09:55:02.107Z,1014.5
2023-01-10T09:56:02.133Z,1014.5
2023-01-10T09:57:01.882Z,1014.5
2023-01-10T09:58:01.895Z,1014.5
2023-01-10T09:59:01.769Z,1014.6
2023-01-10T10:00:02.804Z,1014.5
2023-01-10T10:01:02.812Z,1014.6
2023-01-10T10:02:02.552Z,1014.6
2023-01-10T10:03:02.746Z,1014.6
2023-01-10T10:04:02.773Z,1014.6
2023-01-10T10:05:02.626Z,1014.6
2023-01-10T10:06:12.972Z,1014.6
2023-01-10T10:07:01.721Z,1014.6
2023-01-10T10:08:02.773Z,1014.7
2023-01-10T10:09:05.373Z,1014.7
2023-01-10T10:10:02.049Z,1014.7
2023-01-10T10:11:02.107Z,1014.7
2023-01-10T10:12:01.865Z,1014.7
2023-01-10T10:13:01.834Z,1014.7
2023-01-10T10:14:02.757Z,1014.7
2023-01-10T10:15:02.705Z,1014.7
2023-01-10T10:16:02.724Z,1014.7
2023-01-10T10:17:02.669Z,1014.7
2023-01-10T10:18:02.721Z,1014.6
2023-01-10T10:19:02.617Z,1014.7
2023-01-10T10:20:02.573Z,1014.8
2023-01-10T10:21:02.499Z,1014.7
2023-01-10T10:22:02.458Z,1014.7
2023-01-10T10:23:02.459Z,1014.7
2023-01-10T10:24:02.222Z,1014.7
2023-01-10T10:25:02.194Z,1014.7
2023-01-10T10:26:03.061Z,1014.7
2023-01-10T10:27:01.822Z,1014.7
2023-01-10T10:28:01.837Z,1014.8
2023-01-10T10:29:02.748Z,1014.8
2023-01-10T10:30:02.566Z,1014.8
2023-01-10T10:31:02.596Z,1014.8
2023-01-10T10:32:02.466Z,1014.8
2023-01-10T10:33:02.472Z,1014.8
2023-01-10T10:34:02.439Z,1014.8
2023-01-10T10:35:02.313Z,1014.9
2023-01-10T10:36:02.322Z,1014.9
2023-01-10T10:37:02.259Z,1014.9
2023-01-10T10:38:01.967Z,1014.9
2023-01-10T10:39:02.027Z,1014.9
2023-01-10T10:40:01.876Z,1014.9
2023-01-10T10:41:01.904Z,1014.9
2023-01-10T10:42:01.699Z,1014.9
2023-01-10T10:43:02.765Z,1014.9
2023-01-10T10:44:02.582Z,1014.9
2023-01-10T10:45:02.626Z,1015
2023-01-10T10:46:02.671Z,1015
2023-01-10T10:47:02.536Z,1015
2023-01-10T10:48:02.603Z,1015
2023-01-10T10:49:02.432Z,1015
2023-01-10T10:50:02.436Z,1015
2023-01-10T10:51:02.471Z,1015
2023-01-10T10:52:02.196Z,1014.9
2023-01-10T10:53:02.231Z,1015
2023-01-10T10:54:02.046Z,1014.9
2023-01-10T10:55:02.101Z,1014.9
2023-01-10T10:56:01.831Z,1015
2023-01-10T10:57:01.841Z,1015
2023-01-10T10:58:02.729Z,1015
2023-01-10T10:59:02.632Z,1015
2023-01-10T11:00:02.666Z,1015
2023-01-10T11:01:02.961Z,1015.1
2023-01-10T11:02:02.485Z,1015
2023-01-10T11:03:02.356Z,1015
2023-01-10T11:04:02.302Z,1015.1
2023-01-10T11:05:02.321Z,1015.1
2023-01-10T11:06:02.190Z,1015.1
2023-01-10T11:07:02.037Z,1015.1
2023-01-10T11:08:02.061Z,1015.1
2023-01-10T11:09:01.807Z,1015.1
2023-01-10T11:10:01.854Z,1015.2
2023-01-10T11:11:02.739Z,1015.1
2023-01-10T11:12:02.684Z,1015.1
2023-01-10T11:13:02.632Z,1015.1
2023-01-10T11:14:02.464Z,1015.3
2023-01-10T11:15:02.555Z,1015.2
2023-01-10T11:16:02.807Z,1015.2
2023-01-10T11:17:02.254Z,1015.2
2023-01-10T11:18:02.286Z,1015.3
2023-01-10T11:19:02.257Z,1015.3
2023-01-10T11:20:02.155Z,1015.3
2023-01-10T11:21:02.073Z,1015.2
2023-01-10T11:22:01.871Z,1015.3
2023-01-10T11:23:01.935Z,1015.3
2023-01-10T11:24:01.741Z,1015.3
2023-01-10T11:25:02.776Z,1015.3
2023-01-10T11:26:02.589Z,1015.4
2023-01-10T11:27:02.684Z,1015.3
2023-01-10T11:28:02.564Z,1015.4
2023-01-10T11:29:02.568Z,1015.4
2023-01-10T11:30:02.438Z,1015.3
2023-01-10T11:31:02.465Z,1015.4
2023-01-10T11:32:02.392Z,1015.3
2023-01-10T11:33:02.228Z,1015.4
2023-01-10T11:34:02.023Z,1015.4
2023-01-10T11:35:01.937Z,1015.5
2023-01-10T11:36:01.976Z,1015.5
2023-01-10T11:37:01.698Z,1015.5
2023-01-10T11:38:01.787Z,1015.5
2023-01-10T11:39:02.751Z,1015.5
2023-01-10T11:40:02.556Z,1015.5
2023-01-10T11:41:02.560Z,1015.5
2023-01-10T11:42:02.333Z,1015.5
2023-01-10T11:43:02.382Z,1015.5
2023-01-10T11:44:02.326Z,1015.5
2023-01-10T11:45:02.185Z,1015.5
2023-01-10T11:46:02.545Z,1015.5
2023-01-10T11:47:02.104Z,1015.5
2023-01-10T11:48:02.072Z,1015.5
2023-01-10T11:49:09.151Z,1015.5
2023-01-10T11:50:01.839Z,1015.6
2023-01-10T11:51:02.229Z,1015.5
2023-01-10T11:52:01.960Z,1015.5
2023-01-10T11:53:01.893Z,1015.6
2023-01-10T11:54:01.729Z,1015.6
2023-01-10T11:55:01.745Z,1015.6
2023-01-10T11:56:02.706Z,1015.7
2023-01-10T11:57:02.521Z,1015.7
2023-01-10T11:58:02.542Z,1015.6
2023-01-10T11:59:02.405Z,1015.7
2023-01-10T12:00:02.477Z,1015.7
2023-01-10T12:01:02.682Z,1015.7
2023-01-10T12:02:02.553Z,1015.8
2023-01-10T12:03:02.392Z,1015.7
2023-01-10T12:04:02.324Z,1015.8
2023-01-10T12:05:02.443Z,1015.8
2023-01-10T12:06:02.277Z,1015.8
2023-01-10T12:07:02.242Z,1015.8
2023-01-10T12:08:02.087Z,1015.8
2023-01-10T12:09:02.026Z,1015.8
2023-01-10T12:10:01.835Z,1015.9
2023-01-10T12:11:01.882Z,1015.8
2023-01-10T12:12:02.779Z,1015.8
2023-01-10T12:13:02.589Z,1015.9
2023-01-10T12:14:02.699Z,1015.9
2023-01-10T12:15:02.489Z,1015.9
2023-01-10T12:16:02.567Z,1015.9
2023-01-10T12:17:02.515Z,1015.9
2023-01-10T12:18:02.356Z,1016
2023-01-10T12:19:02.303Z,1016
2023-01-10T12:20:02.152Z,1015.9
2023-01-10T12:21:02.091Z,1016
2023-01-10T12:22:01.869Z,1016
2023-01-10T12:23:01.876Z,1016
2023-01-10T12:24:01.794Z,1016
2023-01-10T12:25:02.778Z,1016
2023-01-10T12:26:12.653Z,1016.1
2023-01-10T12:27:02.410Z,1016
2023-01-10T12:28:02.448Z,1016
2023-01-10T12:29:02.322Z,1016
2023-01-10T12:30:02.205Z,1016
2023-01-10T12:31:02.444Z,1016.1
2023-01-10T12:32:01.987Z,1016.1
2023-01-10T12:33:01.920Z,1016.1